sensor_id;sensor_type;location;lat;lon;timestamp;P1;durP1;ratioP1;P2;durP2;ratioP2
1995;SDS011;38556;47.068;15.408;2023-09-19T00:00:16;26.83;;;24.93;;
1995;SDS011;38556;47.068;15.408;2023-09-19T00:02:45;26.77;;;24.87;;
1995;SDS011;38556;47.068;15.408;2023-09-19T00:05:14;26.47;;;24.67;;
1995;SDS011;38556;47.068;15.408;2023-09-19T00:07:41;26.30;;;24.70;;
1995;SDS011;38556;47.068;15.408;2023-09-19T00:10:10;26.60;;;24.60;;
1995;SDS011;38556;47.068;15.408;2023-09-19T00:12:38;26.33;;;24.50;;
1995;SDS011;38556;47.068;15.408;2023-09-19T00:15:11;25.73;;;23.97;;
1995;SDS011;38556;47.068;15.408;2023-09-19T00:17:38;25.30;;;23.60;;
1995;SDS011;38556;47.068;15.408;2023-09-19T00:20:07;25.37;;;23.67;;
1995;SDS011;38556;47.068;15.408;2023-09-19T00:22:38;25.13;;;23.53;;
1995;SDS011;38556;47.068;15.408;2023-09-19T00:25:07;25.33;;;23.63;;
1995;SDS011;38556;47.068;15.408;2023-09-19T00:27:35;25.73;;;23.90;;
1995;SDS011;38556;47.068;15.408;2023-09-19T00:30:06;24.37;;;22.77;;
1995;SDS011;38556;47.068;15.408;2023-09-19T00:32:41;23.60;;;22.20;;
1995;SDS011;38556;47.068;15.408;2023-09-19T00:35:09;23.87;;;22.37;;
1995;SDS011;38556;47.068;15.408;2023-09-19T00:37:37;24.13;;;22.53;;
1995;SDS011;38556;47.068;15.408;2023-09-19T00:40:06;24.80;;;23.30;;
1995;SDS011;38556;47.068;15.408;2023-09-19T00:42:38;24.80;;;23.17;;
1995;SDS011;38556;47.068;15.408;2023-09-19T00:45:06;25.20;;;23.70;;
1995;SDS011;38556;47.068;15.408;2023-09-19T00:47:37;25.33;;;23.63;;
1995;SDS011;38556;47.068;15.408;2023-09-19T00:50:08;24.97;;;23.27;;
1995;SDS011;38556;47.068;15.408;2023-09-19T00:52:37;25.93;;;24.23;;
1995;SDS011;38556;47.068;15.408;2023-09-19T00:55:05;25.70;;;24.10;;
1995;SDS011;38556;47.068;15.408;2023-09-19T00:57:34;26.57;;;24.70;;
1995;SDS011;38556;47.068;15.408;2023-09-19T01:00:04;25.57;;;24.03;;
1995;SDS011;38556;47.068;15.408;2023-09-19T01:02:34;26.50;;;24.70;;
1995;SDS011;38556;47.068;15.408;2023-09-19T01:05:02;26.57;;;24.87;;
1995;SDS011;38556;47.068;15.408;2023-09-19T01:07:32;26.27;;;24.47;;
1995;SDS011;38556;47.068;15.408;2023-09-19T01:10:00;25.77;;;24.17;;
1995;SDS011;38556;47.068;15.408;2023-09-19T01:12:33;26.23;;;24.53;;
1995;SDS011;38556;47.068;15.408;2023-09-19T01:15:11;26.20;;;24.50;;
1995;SDS011;38556;47.068;15.408;2023-09-19T01:17:48;26.97;;;25.00;;
1995;SDS011;38556;47.068;15.408;2023-09-19T01:20:26;25.70;;;23.90;;
1995;SDS011;38556;47.068;15.408;2023-09-19T01:23:05;25.40;;;23.80;;
1995;SDS011;38556;47.068;15.408;2023-09-19T01:25:55;26.20;;;24.30;;
1995;SDS011;38556;47.068;15.408;2023-09-19T01:28:54;24.97;;;23.33;;
1995;SDS011;38556;47.068;15.408;2023-09-19T01:31:42;25.97;;;24.27;;
1995;SDS011;38556;47.068;15.408;2023-09-19T01:34:11;24.37;;;22.87;;
1995;SDS011;38556;47.068;15.408;2023-09-19T01:36:38;24.40;;;22.80;;
1995;SDS011;38556;47.068;15.408;2023-09-19T01:39:06;23.50;;;22.10;;
1995;SDS011;38556;47.068;15.408;2023-09-19T01:41:41;23.70;;;22.10;;
1995;SDS011;38556;47.068;15.408;2023-09-19T01:44:15;23.67;;;22.20;;
1995;SDS011;38556;47.068;15.408;2023-09-19T01:47:04;24.07;;;22.47;;
1995;SDS011;38556;47.068;15.408;2023-09-19T01:49:42;23.33;;;21.90;;
1995;SDS011;38556;47.068;15.408;2023-09-19T01:52:15;24.23;;;22.63;;
1995;SDS011;38556;47.068;15.408;2023-09-19T01:54:48;25.37;;;23.57;;
1995;SDS011;38556;47.068;15.408;2023-09-19T01:57:20;23.73;;;22.23;;
1995;SDS011;38556;47.068;15.408;2023-09-19T01:59:59;24.80;;;23.20;;
1995;SDS011;38556;47.068;15.408;2023-09-19T02:02:34;23.73;;;22.23;;
1995;SDS011;38556;47.068;15.408;2023-09-19T02:05:02;24.30;;;22.67;;
1995;SDS011;38556;47.068;15.408;2023-09-19T02:07:30;24.90;;;23.33;;
1995;SDS011;38556;47.068;15.408;2023-09-19T02:09:58;25.37;;;23.87;;
1995;SDS011;38556;47.068;15.408;2023-09-19T02:12:26;24.53;;;23.13;;
1995;SDS011;38556;47.068;15.408;2023-09-19T02:14:53;25.40;;;24.00;;
1995;SDS011;38556;47.068;15.408;2023-09-19T02:17:23;25.83;;;24.43;;
1995;SDS011;38556;47.068;15.408;2023-09-19T02:19:52;25.07;;;23.67;;
1995;SDS011;38556;47.068;15.408;2023-09-19T02:22:20;24.13;;;22.60;;
1995;SDS011;38556;47.068;15.408;2023-09-19T02:24:48;23.93;;;22.57;;
1995;SDS011;38556;47.068;15.408;2023-09-19T02:27:16;23.80;;;22.40;;
1995;SDS011;38556;47.068;15.408;2023-09-19T02:29:45;24.77;;;23.37;;
1995;SDS011;38556;47.068;15.408;2023-09-19T02:32:13;24.90;;;23.50;;
1995;SDS011;38556;47.068;15.408;2023-09-19T02:34:40;24.00;;;22.60;;
1995;SDS011;38556;47.068;15.408;2023-09-19T02:37:10;24.40;;;23.00;;
1995;SDS011;38556;47.068;15.408;2023-09-19T02:39:38;24.70;;;23.30;;
1995;SDS011;38556;47.068;15.408;2023-09-19T02:42:06;24.30;;;22.90;;
1995;SDS011;38556;47.068;15.408;2023-09-19T02:44:34;25.50;;;24.00;;
1995;SDS011;38556;47.068;15.408;2023-09-19T02:47:03;24.00;;;22.70;;
1995;SDS011;38556;47.068;15.408;2023-09-19T02:49:30;23.60;;;22.30;;
1995;SDS011;38556;47.068;15.408;2023-09-19T02:51:58;24.10;;;22.80;;
1995;SDS011;38556;47.068;15.408;2023-09-19T02:54:27;24.23;;;22.93;;
1995;SDS011;38556;47.068;15.408;2023-09-19T02:56:54;24.20;;;22.80;;
1995;SDS011;38556;47.068;15.408;2023-09-19T02:59:22;24.50;;;23.10;;
1995;SDS011;38556;47.068;15.408;2023-09-19T03:01:50;25.20;;;23.90;;
1995;SDS011;38556;47.068;15.408;2023-09-19T03:04:19;24.17;;;22.80;;
1995;SDS011;38556;47.068;15.408;2023-09-19T03:06:47;23.87;;;22.57;;
1995;SDS011;38556;47.068;15.408;2023-09-19T03:09:16;23.93;;;22.63;;
1995;SDS011;38556;47.068;15.408;2023-09-19T03:11:45;23.40;;;22.10;;
1995;SDS011;38556;47.068;15.408;2023-09-19T03:14:13;23.50;;;22.10;;
1995;SDS011;38556;47.068;15.408;2023-09-19T03:16:41;23.60;;;22.20;;
1995;SDS011;38556;47.068;15.408;2023-09-19T03:19:09;23.50;;;21.97;;
1995;SDS011;38556;47.068;15.408;2023-09-19T03:21:38;22.90;;;21.60;;
1995;SDS011;38556;47.068;15.408;2023-09-19T03:24:05;24.47;;;22.97;;
1995;SDS011;38556;47.068;15.408;2023-09-19T03:26:33;24.13;;;22.83;;
1995;SDS011;38556;47.068;15.408;2023-09-19T03:29:04;24.23;;;22.73;;
1995;SDS011;38556;47.068;15.408;2023-09-19T03:31:33;23.60;;;22.20;;
1995;SDS011;38556;47.068;15.408;2023-09-19T03:34:03;24.10;;;22.63;;
1995;SDS011;38556;47.068;15.408;2023-09-19T03:36:31;23.30;;;21.90;;
1995;SDS011;38556;47.068;15.408;2023-09-19T03:39:01;23.47;;;22.17;;
1995;SDS011;38556;47.068;15.408;2023-09-19T03:41:30;24.63;;;22.93;;
1995;SDS011;38556;47.068;15.408;2023-09-19T03:43:58;24.00;;;22.63;;
1995;SDS011;38556;47.068;15.408;2023-09-19T03:46:27;24.73;;;23.43;;
1995;SDS011;38556;47.068;15.408;2023-09-19T03:48:56;24.40;;;22.60;;
1995;SDS011;38556;47.068;15.408;2023-09-19T03:51:23;24.63;;;23.10;;
1995;SDS011;38556;47.068;15.408;2023-09-19T03:53:50;24.00;;;22.70;;
1995;SDS011;38556;47.068;15.408;2023-09-19T03:56:18;23.93;;;22.60;;
1995;SDS011;38556;47.068;15.408;2023-09-19T03:58:45;24.27;;;22.83;;
1995;SDS011;38556;47.068;15.408;2023-09-19T04:01:13;29.57;;;28.07;;
1995;SDS011;38556;47.068;15.408;2023-09-19T04:03:43;30.80;;;29.00;;
1995;SDS011;38556;47.068;15.408;2023-09-19T04:06:14;30.73;;;29.13;;
1995;SDS011;38556;47.068;15.408;2023-09-19T04:08:41;31.97;;;30.10;;
1995;SDS011;38556;47.068;15.408;2023-09-19T04:11:09;31.97;;;30.37;;
1995;SDS011;38556;47.068;15.408;2023-09-19T04:13:37;30.17;;;28.53;;
1995;SDS011;38556;47.068;15.408;2023-09-19T04:16:04;28.73;;;27.13;;
1995;SDS011;38556;47.068;15.408;2023-09-19T04:18:32;32.70;;;30.03;;
1995;SDS011;38556;47.068;15.408;2023-09-19T04:21:04;29.20;;;27.60;;
1995;SDS011;38556;47.068;15.408;2023-09-19T04:23:31;30.53;;;29.03;;
1995;SDS011;38556;47.068;15.408;2023-09-19T04:25:58;30.77;;;29.13;;
1995;SDS011;38556;47.068;15.408;2023-09-19T04:28:26;31.87;;;30.37;;
1995;SDS011;38556;47.068;15.408;2023-09-19T04:30:54;30.10;;;28.60;;
1995;SDS011;38556;47.068;15.408;2023-09-19T04:33:21;29.50;;;28.00;;
1995;SDS011;38556;47.068;15.408;2023-09-19T04:35:49;31.17;;;29.37;;
1995;SDS011;38556;47.068;15.408;2023-09-19T04:38:18;30.30;;;28.50;;
1995;SDS011;38556;47.068;15.408;2023-09-19T04:40:45;30.90;;;29.27;;
1995;SDS011;38556;47.068;15.408;2023-09-19T04:43:13;32.93;;;31.23;;
1995;SDS011;38556;47.068;15.408;2023-09-19T04:45:40;30.70;;;29.03;;
1995;SDS011;38556;47.068;15.408;2023-09-19T04:48:08;29.90;;;28.40;;
1995;SDS011;38556;47.068;15.408;2023-09-19T04:50:36;31.90;;;30.03;;
1995;SDS011;38556;47.068;15.408;2023-09-19T04:53:04;32.27;;;30.57;;
1995;SDS011;38556;47.068;15.408;2023-09-19T04:55:33;32.40;;;30.80;;
1995;SDS011;38556;47.068;15.408;2023-09-19T04:58:02;32.17;;;30.30;;
1995;SDS011;38556;47.068;15.408;2023-09-19T05:00:29;30.03;;;28.30;;
1995;SDS011;38556;47.068;15.408;2023-09-19T05:03:01;29.73;;;27.80;;
1995;SDS011;38556;47.068;15.408;2023-09-19T05:05:29;29.30;;;27.80;;
1995;SDS011;38556;47.068;15.408;2023-09-19T05:07:56;28.80;;;27.20;;
1995;SDS011;38556;47.068;15.408;2023-09-19T05:10:24;30.50;;;29.00;;
1995;SDS011;38556;47.068;15.408;2023-09-19T05:12:54;28.93;;;27.30;;
1995;SDS011;38556;47.068;15.408;2023-09-19T05:15:23;28.77;;;27.10;;
1995;SDS011;38556;47.068;15.408;2023-09-19T05:17:51;28.80;;;27.20;;
1995;SDS011;38556;47.068;15.408;2023-09-19T05:20:20;30.80;;;29.10;;
1995;SDS011;38556;47.068;15.408;2023-09-19T05:22:57;30.13;;;28.43;;
1995;SDS011;38556;47.068;15.408;2023-09-19T05:25:28;30.70;;;29.20;;
1995;SDS011;38556;47.068;15.408;2023-09-19T05:27:57;26.77;;;25.33;;
1995;SDS011;38556;47.068;15.408;2023-09-19T05:30:26;25.03;;;23.63;;
1995;SDS011;38556;47.068;15.408;2023-09-19T05:32:54;26.10;;;24.60;;
1995;SDS011;38556;47.068;15.408;2023-09-19T05:35:22;26.40;;;24.67;;
1995;SDS011;38556;47.068;15.408;2023-09-19T05:37:50;27.20;;;25.30;;
1995;SDS011;38556;47.068;15.408;2023-09-19T05:40:18;25.93;;;24.43;;
1995;SDS011;38556;47.068;15.408;2023-09-19T05:42:46;25.37;;;23.97;;
1995;SDS011;38556;47.068;15.408;2023-09-19T05:45:17;26.20;;;24.80;;
1995;SDS011;38556;47.068;15.408;2023-09-19T05:47:47;25.83;;;24.37;;
1995;SDS011;38556;47.068;15.408;2023-09-19T05:50:16;26.10;;;24.67;;
1995;SDS011;38556;47.068;15.408;2023-09-19T05:52:51;27.30;;;25.90;;
1995;SDS011;38556;47.068;15.408;2023-09-19T05:55:19;27.17;;;25.47;;
1995;SDS011;38556;47.068;15.408;2023-09-19T05:57:49;26.53;;;25.03;;
1995;SDS011;38556;47.068;15.408;2023-09-19T06:00:19;26.30;;;24.80;;
1995;SDS011;38556;47.068;15.408;2023-09-19T06:02:49;26.93;;;25.47;;
1995;SDS011;38556;47.068;15.408;2023-09-19T06:05:18;25.40;;;24.00;;
1995;SDS011;38556;47.068;15.408;2023-09-19T06:07:45;26.33;;;24.67;;
1995;SDS011;38556;47.068;15.408;2023-09-19T06:10:13;30.13;;;28.33;;
1995;SDS011;38556;47.068;15.408;2023-09-19T06:12:42;30.47;;;28.67;;
1995;SDS011;38556;47.068;15.408;2023-09-19T06:15:11;30.20;;;28.40;;
1995;SDS011;38556;47.068;15.408;2023-09-19T06:17:42;31.93;;;30.20;;
1995;SDS011;38556;47.068;15.408;2023-09-19T06:20:10;32.77;;;30.87;;
1995;SDS011;38556;47.068;15.408;2023-09-19T06:22:40;29.63;;;27.83;;
1995;SDS011;38556;47.068;15.408;2023-09-19T06:25:09;30.00;;;27.90;;
1995;SDS011;38556;47.068;15.408;2023-09-19T06:27:37;30.80;;;28.90;;
1995;SDS011;38556;47.068;15.408;2023-09-19T06:30:07;29.93;;;28.23;;
1995;SDS011;38556;47.068;15.408;2023-09-19T06:32:36;29.70;;;27.80;;
1995;SDS011;38556;47.068;15.408;2023-09-19T06:35:06;29.27;;;27.67;;
1995;SDS011;38556;47.068;15.408;2023-09-19T06:37:34;29.83;;;28.23;;
1995;SDS011;38556;47.068;15.408;2023-09-19T06:40:05;31.77;;;29.67;;
1995;SDS011;38556;47.068;15.408;2023-09-19T06:42:38;30.77;;;28.77;;
1995;SDS011;38556;47.068;15.408;2023-09-19T06:45:07;30.70;;;28.80;;
1995;SDS011;38556;47.068;15.408;2023-09-19T06:47:36;30.17;;;28.37;;
1995;SDS011;38556;47.068;15.408;2023-09-19T06:50:06;32.57;;;30.50;;
1995;SDS011;38556;47.068;15.408;2023-09-19T06:52:38;30.60;;;28.90;;
1995;SDS011;38556;47.068;15.408;2023-09-19T06:55:07;29.30;;;27.70;;
1995;SDS011;38556;47.068;15.408;2023-09-19T06:57:35;30.57;;;28.40;;
1995;SDS011;38556;47.068;15.408;2023-09-19T07:00:03;29.90;;;28.20;;
1995;SDS011;38556;47.068;15.408;2023-09-19T07:02:34;29.80;;;27.80;;
1995;SDS011;38556;47.068;15.408;2023-09-19T07:05:02;29.97;;;28.20;;
1995;SDS011;38556;47.068;15.408;2023-09-19T07:07:32;29.80;;;27.70;;
1995;SDS011;38556;47.068;15.408;2023-09-19T07:10:00;29.83;;;28.10;;
1995;SDS011;38556;47.068;15.408;2023-09-19T07:12:27;29.20;;;27.60;;
1995;SDS011;38556;47.068;15.408;2023-09-19T07:14:55;30.50;;;28.80;;
1995;SDS011;38556;47.068;15.408;2023-09-19T07:17:22;28.57;;;26.73;;
1995;SDS011;38556;47.068;15.408;2023-09-19T07:19:50;30.00;;;28.33;;
1995;SDS011;38556;47.068;15.408;2023-09-19T07:22:17;29.47;;;27.67;;
1995;SDS011;38556;47.068;15.408;2023-09-19T07:24:46;29.23;;;27.57;;
1995;SDS011;38556;47.068;15.408;2023-09-19T07:27:14;30.20;;;28.60;;
1995;SDS011;38556;47.068;15.408;2023-09-19T07:29:42;30.57;;;28.50;;
1995;SDS011;38556;47.068;15.408;2023-09-19T07:32:10;28.37;;;26.50;;
1995;SDS011;38556;47.068;15.408;2023-09-19T07:34:39;29.40;;;27.33;;
1995;SDS011;38556;47.068;15.408;2023-09-19T07:37:06;29.80;;;28.00;;
1995;SDS011;38556;47.068;15.408;2023-09-19T07:39:35;30.73;;;28.77;;
1995;SDS011;38556;47.068;15.408;2023-09-19T07:42:04;29.63;;;27.90;;
1995;SDS011;38556;47.068;15.408;2023-09-19T07:44:34;30.03;;;28.30;;
1995;SDS011;38556;47.068;15.408;2023-09-19T07:47:01;30.20;;;28.30;;
1995;SDS011;38556;47.068;15.408;2023-09-19T07:49:30;30.00;;;28.20;;
1995;SDS011;38556;47.068;15.408;2023-09-19T07:51:57;29.47;;;27.87;;
1995;SDS011;38556;47.068;15.408;2023-09-19T07:54:25;28.73;;;26.53;;
1995;SDS011;38556;47.068;15.408;2023-09-19T07:56:55;28.20;;;26.60;;
1995;SDS011;38556;47.068;15.408;2023-09-19T07:59:25;28.20;;;26.30;;
1995;SDS011;38556;47.068;15.408;2023-09-19T08:01:52;28.07;;;26.33;;
1995;SDS011;38556;47.068;15.408;2023-09-19T08:04:20;31.90;;;30.00;;
1995;SDS011;38556;47.068;15.408;2023-09-19T08:06:47;36.47;;;33.97;;
1995;SDS011;38556;47.068;15.408;2023-09-19T08:09:17;45.50;;;42.33;;
1995;SDS011;38556;47.068;15.408;2023-09-19T08:11:46;30.77;;;28.63;;
1995;SDS011;38556;47.068;15.408;2023-09-19T08:14:16;30.27;;;28.37;;
1995;SDS011;38556;47.068;15.408;2023-09-19T08:16:45;29.53;;;27.70;;
1995;SDS011;38556;47.068;15.408;2023-09-19T08:19:13;30.30;;;28.40;;
1995;SDS011;38556;47.068;15.408;2023-09-19T08:21:41;34.37;;;32.33;;
1995;SDS011;38556;47.068;15.408;2023-09-19T08:24:11;32.03;;;30.10;;
1995;SDS011;38556;47.068;15.408;2023-09-19T08:26:40;32.70;;;30.90;;
1995;SDS011;38556;47.068;15.408;2023-09-19T08:29:07;32.83;;;31.03;;
1995;SDS011;38556;47.068;15.408;2023-09-19T08:31:37;33.93;;;32.03;;
1995;SDS011;38556;47.068;15.408;2023-09-19T08:34:06;33.60;;;31.70;;
1995;SDS011;38556;47.068;15.408;2023-09-19T08:36:33;33.70;;;31.57;;
1995;SDS011;38556;47.068;15.408;2023-09-19T08:39:03;34.37;;;32.37;;
1995;SDS011;38556;47.068;15.408;2023-09-19T08:41:30;33.07;;;31.17;;
1995;SDS011;38556;47.068;15.408;2023-09-19T08:43:58;32.20;;;30.27;;
1995;SDS011;38556;47.068;15.408;2023-09-19T08:46:27;32.87;;;30.70;;
1995;SDS011;38556;47.068;15.408;2023-09-19T08:48:57;31.73;;;29.90;;
1995;SDS011;38556;47.068;15.408;2023-09-19T08:51:38;30.03;;;28.20;;
1995;SDS011;38556;47.068;15.408;2023-09-19T08:54:10;27.90;;;26.30;;
1995;SDS011;38556;47.068;15.408;2023-09-19T08:56:40;29.50;;;27.40;;
1995;SDS011;38556;47.068;15.408;2023-09-19T08:59:09;31.10;;;29.20;;
1995;SDS011;38556;47.068;15.408;2023-09-19T09:01:37;31.13;;;29.10;;
1995;SDS011;38556;47.068;15.408;2023-09-19T09:04:08;30.93;;;29.20;;
1995;SDS011;38556;47.068;15.408;2023-09-19T09:06:39;31.23;;;29.53;;
1995;SDS011;38556;47.068;15.408;2023-09-19T09:09:09;29.80;;;28.00;;
1995;SDS011;38556;47.068;15.408;2023-09-19T09:11:37;29.47;;;27.77;;
1995;SDS011;38556;47.068;15.408;2023-09-19T09:14:06;28.20;;;26.60;;
1995;SDS011;38556;47.068;15.408;2023-09-19T09:16:34;28.03;;;26.17;;
1995;SDS011;38556;47.068;15.408;2023-09-19T09:19:02;29.57;;;27.90;;
1995;SDS011;38556;47.068;15.408;2023-09-19T09:21:29;29.67;;;27.97;;
1995;SDS011;38556;47.068;15.408;2023-09-19T09:26:55;29.50;;;27.80;;
1995;SDS011;38556;47.068;15.408;2023-09-19T09:32:20;27.87;;;25.97;;
1995;SDS011;38556;47.068;15.408;2023-09-19T09:34:50;28.60;;;26.83;;
1995;SDS011;38556;47.068;15.408;2023-09-19T09:37:18;29.70;;;28.00;;
1995;SDS011;38556;47.068;15.408;2023-09-19T09:39:51;30.37;;;28.50;;
1995;SDS011;38556;47.068;15.408;2023-09-19T09:42:31;29.43;;;27.60;;
1995;SDS011;38556;47.068;15.408;2023-09-19T09:45:13;28.57;;;26.93;;
1995;SDS011;38556;47.068;15.408;2023-09-19T09:47:43;29.33;;;27.40;;
1995;SDS011;38556;47.068;15.408;2023-09-19T09:53:19;29.60;;;27.67;;
1995;SDS011;38556;47.068;15.408;2023-09-19T09:55:58;34.57;;;32.27;;
1995;SDS011;38556;47.068;15.408;2023-09-19T09:58:28;37.87;;;35.40;;
1995;SDS011;38556;47.068;15.408;2023-09-19T10:00:58;35.70;;;33.70;;
1995;SDS011;38556;47.068;15.408;2023-09-19T10:03:32;36.13;;;33.80;;
1995;SDS011;38556;47.068;15.408;2023-09-19T10:06:05;32.67;;;30.77;;
1995;SDS011;38556;47.068;15.408;2023-09-19T10:08:57;31.90;;;29.93;;
1995;SDS011;38556;47.068;15.408;2023-09-19T10:11:40;34.73;;;32.83;;
1995;SDS011;38556;47.068;15.408;2023-09-19T10:14:10;34.70;;;32.90;;
1995;SDS011;38556;47.068;15.408;2023-09-19T10:16:45;33.63;;;31.73;;
1995;SDS011;38556;47.068;15.408;2023-09-19T10:19:20;30.93;;;29.23;;
1995;SDS011;38556;47.068;15.408;2023-09-19T10:21:49;30.80;;;28.90;;
1995;SDS011;38556;47.068;15.408;2023-09-19T10:24:18;31.27;;;29.50;;
1995;SDS011;38556;47.068;15.408;2023-09-19T10:26:48;30.13;;;28.40;;
1995;SDS011;38556;47.068;15.408;2023-09-19T10:29:17;33.07;;;31.10;;
1995;SDS011;38556;47.068;15.408;2023-09-19T10:31:45;31.70;;;29.90;;
1995;SDS011;38556;47.068;15.408;2023-09-19T10:34:17;30.90;;;28.90;;
1995;SDS011;38556;47.068;15.408;2023-09-19T10:36:45;29.90;;;28.10;;
1995;SDS011;38556;47.068;15.408;2023-09-19T10:39:14;30.50;;;28.67;;
1995;SDS011;38556;47.068;15.408;2023-09-19T10:41:47;30.07;;;28.17;;
1995;SDS011;38556;47.068;15.408;2023-09-19T10:44:21;31.43;;;29.53;;
1995;SDS011;38556;47.068;15.408;2023-09-19T10:46:50;27.73;;;25.90;;
1995;SDS011;38556;47.068;15.408;2023-09-19T10:49:19;29.03;;;27.33;;
1995;SDS011;38556;47.068;15.408;2023-09-19T10:51:47;29.07;;;26.77;;
1995;SDS011;38556;47.068;15.408;2023-09-19T10:54:21;26.23;;;24.50;;
1995;SDS011;38556;47.068;15.408;2023-09-19T10:56:54;26.80;;;25.30;;
1995;SDS011;38556;47.068;15.408;2023-09-19T10:59:24;26.97;;;25.47;;
1995;SDS011;38556;47.068;15.408;2023-09-19T11:01:59;28.00;;;26.40;;
1995;SDS011;38556;47.068;15.408;2023-09-19T11:04:29;28.00;;;26.40;;
1995;SDS011;38556;47.068;15.408;2023-09-19T11:07:01;27.60;;;25.80;;
1995;SDS011;38556;47.068;15.408;2023-09-19T11:09:43;27.83;;;26.20;;
1995;SDS011;38556;47.068;15.408;2023-09-19T11:12:13;28.90;;;27.40;;
1995;SDS011;38556;47.068;15.408;2023-09-19T11:24:29;32.03;;;30.03;;
1995;SDS011;38556;47.068;15.408;2023-09-19T11:27:15;27.87;;;26.27;;
1995;SDS011;38556;47.068;15.408;2023-09-19T11:29:44;27.60;;;25.90;;
1995;SDS011;38556;47.068;15.408;2023-09-19T11:32:13;27.93;;;26.43;;
1995;SDS011;38556;47.068;15.408;2023-09-19T11:34:46;28.50;;;26.70;;
1995;SDS011;38556;47.068;15.408;2023-09-19T11:40:37;26.90;;;25.40;;
1995;SDS011;38556;47.068;15.408;2023-09-19T11:46:06;26.47;;;24.97;;
1995;SDS011;38556;47.068;15.408;2023-09-19T11:48:34;27.73;;;26.27;;
1995;SDS011;38556;47.068;15.408;2023-09-19T11:51:14;27.33;;;25.83;;
1995;SDS011;38556;47.068;15.408;2023-09-19T11:53:53;28.00;;;26.50;;
1995;SDS011;38556;47.068;15.408;2023-09-19T11:56:21;27.87;;;26.27;;
1995;SDS011;38556;47.068;15.408;2023-09-19T11:58:51;27.60;;;26.00;;
1995;SDS011;38556;47.068;15.408;2023-09-19T12:01:25;27.57;;;25.97;;
1995;SDS011;38556;47.068;15.408;2023-09-19T12:03:55;27.73;;;26.03;;
1995;SDS011;38556;47.068;15.408;2023-09-19T12:06:24;27.00;;;25.50;;
1995;SDS011;38556;47.068;15.408;2023-09-19T12:08:52;26.10;;;24.60;;
1995;SDS011;38556;47.068;15.408;2023-09-19T12:11:21;27.03;;;25.53;;
1995;SDS011;38556;47.068;15.408;2023-09-19T12:13:51;27.23;;;25.63;;
1995;SDS011;38556;47.068;15.408;2023-09-19T12:16:19;27.00;;;25.40;;
1995;SDS011;38556;47.068;15.408;2023-09-19T12:18:50;27.93;;;25.90;;
1995;SDS011;38556;47.068;15.408;2023-09-19T12:21:23;27.40;;;25.80;;
1995;SDS011;38556;47.068;15.408;2023-09-19T12:23:57;26.67;;;25.13;;
1995;SDS011;38556;47.068;15.408;2023-09-19T12:26:39;28.50;;;26.90;;
1995;SDS011;38556;47.068;15.408;2023-09-19T12:29:18;27.70;;;25.40;;
1995;SDS011;38556;47.068;15.408;2023-09-19T12:31:50;26.33;;;24.73;;
1995;SDS011;38556;47.068;15.408;2023-09-19T12:34:20;26.27;;;24.80;;
1995;SDS011;38556;47.068;15.408;2023-09-19T12:37:05;26.37;;;24.97;;
1995;SDS011;38556;47.068;15.408;2023-09-19T12:39:37;26.27;;;24.67;;
1995;SDS011;38556;47.068;15.408;2023-09-19T12:42:07;27.07;;;25.57;;
1995;SDS011;38556;47.068;15.408;2023-09-19T12:44:37;26.80;;;25.23;;
1995;SDS011;38556;47.068;15.408;2023-09-19T12:47:10;25.87;;;24.47;;
1995;SDS011;38556;47.068;15.408;2023-09-19T12:52:43;25.67;;;24.17;;
1995;SDS011;38556;47.068;15.408;2023-09-19T12:55:22;26.30;;;24.80;;
1995;SDS011;38556;47.068;15.408;2023-09-19T12:57:56;25.97;;;24.37;;
1995;SDS011;38556;47.068;15.408;2023-09-19T13:00:32;27.33;;;25.60;;
1995;SDS011;38556;47.068;15.408;2023-09-19T13:03:14;26.60;;;25.07;;
1995;SDS011;38556;47.068;15.408;2023-09-19T13:05:53;25.87;;;24.37;;
1995;SDS011;38556;47.068;15.408;2023-09-19T13:08:24;26.60;;;25.10;;
1995;SDS011;38556;47.068;15.408;2023-09-19T13:11:05;29.87;;;27.87;;
1995;SDS011;38556;47.068;15.408;2023-09-19T13:13:36;30.67;;;28.97;;
1995;SDS011;38556;47.068;15.408;2023-09-19T13:16:05;31.93;;;30.20;;
1995;SDS011;38556;47.068;15.408;2023-09-19T13:18:44;33.03;;;30.90;;
1995;SDS011;38556;47.068;15.408;2023-09-19T13:21:13;32.13;;;30.13;;
1995;SDS011;38556;47.068;15.408;2023-09-19T13:23:52;31.63;;;29.93;;
1995;SDS011;38556;47.068;15.408;2023-09-19T13:26:24;32.37;;;30.30;;
1995;SDS011;38556;47.068;15.408;2023-09-19T13:28:53;31.10;;;29.40;;
1995;SDS011;38556;47.068;15.408;2023-09-19T13:31:22;31.53;;;29.87;;
1995;SDS011;38556;47.068;15.408;2023-09-19T13:33:51;30.70;;;28.90;;
1995;SDS011;38556;47.068;15.408;2023-09-19T13:36:18;33.50;;;31.67;;
1995;SDS011;38556;47.068;15.408;2023-09-19T13:38:45;32.70;;;30.80;;
1995;SDS011;38556;47.068;15.408;2023-09-19T13:41:14;31.70;;;29.90;;
1995;SDS011;38556;47.068;15.408;2023-09-19T13:43:42;32.90;;;31.10;;
1995;SDS011;38556;47.068;15.408;2023-09-19T13:46:14;31.07;;;29.27;;
1995;SDS011;38556;47.068;15.408;2023-09-19T13:48:45;32.00;;;30.20;;
1995;SDS011;38556;47.068;15.408;2023-09-19T13:51:12;33.60;;;31.70;;
1995;SDS011;38556;47.068;15.408;2023-09-19T13:53:40;31.97;;;30.03;;
1995;SDS011;38556;47.068;15.408;2023-09-19T13:56:08;30.20;;;28.40;;
1995;SDS011;38556;47.068;15.408;2023-09-19T13:58:36;31.20;;;29.50;;
1995;SDS011;38556;47.068;15.408;2023-09-19T14:01:04;29.43;;;27.83;;
1995;SDS011;38556;47.068;15.408;2023-09-19T14:03:32;29.67;;;27.50;;
1995;SDS011;38556;47.068;15.408;2023-09-19T14:06:00;28.40;;;26.60;;
1995;SDS011;38556;47.068;15.408;2023-09-19T14:08:28;28.80;;;27.20;;
1995;SDS011;38556;47.068;15.408;2023-09-19T14:10:55;29.33;;;27.53;;
1995;SDS011;38556;47.068;15.408;2023-09-19T14:13:23;29.23;;;27.53;;
1995;SDS011;38556;47.068;15.408;2023-09-19T14:15:51;30.80;;;29.00;;
1995;SDS011;38556;47.068;15.408;2023-09-19T14:18:19;33.93;;;32.03;;
1995;SDS011;38556;47.068;15.408;2023-09-19T14:20:47;35.93;;;33.60;;
1995;SDS011;38556;47.068;15.408;2023-09-19T14:23:19;33.33;;;31.33;;
1995;SDS011;38556;47.068;15.408;2023-09-19T14:25:49;34.07;;;31.97;;
1995;SDS011;38556;47.068;15.408;2023-09-19T14:28:17;34.27;;;32.47;;
1995;SDS011;38556;47.068;15.408;2023-09-19T14:30:45;35.60;;;33.77;;
1995;SDS011;38556;47.068;15.408;2023-09-19T14:33:14;33.00;;;31.20;;
1995;SDS011;38556;47.068;15.408;2023-09-19T14:35:42;32.33;;;30.53;;
1995;SDS011;38556;47.068;15.408;2023-09-19T14:38:10;33.33;;;31.53;;
1995;SDS011;38556;47.068;15.408;2023-09-19T14:40:39;32.37;;;30.47;;
1995;SDS011;38556;47.068;15.408;2023-09-19T14:43:07;31.97;;;30.17;;
1995;SDS011;38556;47.068;15.408;2023-09-19T14:45:35;31.80;;;29.90;;
1995;SDS011;38556;47.068;15.408;2023-09-19T14:48:03;31.70;;;30.00;;
1995;SDS011;38556;47.068;15.408;2023-09-19T14:50:31;33.10;;;31.10;;
1995;SDS011;38556;47.068;15.408;2023-09-19T14:52:59;32.70;;;30.60;;
1995;SDS011;38556;47.068;15.408;2023-09-19T14:55:29;31.10;;;29.30;;
1995;SDS011;38556;47.068;15.408;2023-09-19T14:58:01;29.30;;;27.70;;
1995;SDS011;38556;47.068;15.408;2023-09-19T15:00:29;31.67;;;29.97;;
1995;SDS011;38556;47.068;15.408;2023-09-19T15:02:58;29.40;;;27.70;;
1995;SDS011;38556;47.068;15.408;2023-09-19T15:05:27;27.80;;;26.20;;